Flight Track Log - Related Links

Times and Time Zones

All times are in EDT time to prevent confusion due to time zone crossing. See the BJS439 flight status page for this flight to view local times or setup timezone preferences in your user account.

Time Position Orientation Groundspeed Altitude Reporting Facility
EDT Latitude Longitude Course Direction KTS MPH feet Rate Location/Type
Sat 09:52:24 AM 35.8950 -78.7636 22° Northeast 151 174 3,100  Level Washington Center
Sat 09:54:27 AM 36.0069 -78.7067 22° Northeast 258 297 8,800 2,820 Climbing Washington Center
Sat 09:55:27 AM 36.0889 -78.6867 11° North 265 305 11,700 2,500 Climbing Washington Center
Sat 09:56:27 AM 36.1961 -78.6550 13° North 307 353 13,800 3,050 Climbing Washington Center
Sat 09:57:27 AM 36.3139 -78.6233 12° North 386 444 17,800 3,900 Climbing Washington Center
Sat 09:58:27 AM 36.4358 -78.5867 14° North 419 482 21,600 2,900 Climbing Washington Center
Sat 09:59:27 AM 36.5600 -78.5397 17° North 446 513 23,600 2,350 Climbing Washington Center
Sat 10:00:27 AM 36.6939 -78.4414 30° Northeast 479 551 26,300 1,850 Climbing Washington Center
Sat 10:01:27 AM 36.8294 -78.3503 28° Northeast 509 586 27,300 850 Climbing Washington Center
Sat 10:02:27 AM 36.9586 -78.2639 28° Northeast 557 641 28,000 350 Climbing Washington Center
Sat 10:03:27 AM 37.0994 -78.1203 39° Northeast 587 676 28,000 550 Level Washington Center
Sat 10:04:27 AM 37.2192 -77.9808 43° Northeast 587 676 29,100 1,550 Climbing Washington Center
Sat 10:05:27 AM 37.3286 -77.8250 49° Northeast 582 670 31,100 2,200 Climbing Washington Center
Sat 10:06:27 AM 37.4375 -77.6792 47° Northeast 582 670 33,500 2,350 Climbing Washington Center
Sat 10:07:27 AM 37.5586 -77.5539 39° Northeast 567 652 35,800 2,200 Climbing Washington Center
Sat 10:08:27 AM 37.6753 -77.4336 39° Northeast 547 629 37,900 1,800 Climbing Washington Center
Sat 10:09:27 AM 37.7897 -77.3131 40° Northeast 542 624 39,400 1,250 Climbing Washington Center
Sat 10:10:27 AM 37.9061 -77.1892 40° Northeast 532 612 40,400 800 Climbing Washington Center
Sat 10:11:27 AM 38.0203 -77.0678 40° Northeast 532 612 41,000 300 Climbing Washington Center
Sat 10:12:27 AM 38.1386 -76.9433 40° Northeast 539 620 41,000  Level Washington Center
Sat 10:13:27 AM 38.2567 -76.8158 40° Northeast 544 626 41,000  Level Washington Center
Sat 10:14:27 AM 38.3747 -76.6908 40° Northeast 544 626 41,000  Level Washington Center
Sat 10:15:27 AM 38.4967 -76.5600 40° Northeast 555 639 41,000  Level Washington Center
Sat 10:16:27 AM 38.6164 -76.4286 41° Northeast 560 644 41,000  Level Washington Center
Sat 10:17:27 AM 38.7342 -76.3022 40° Northeast 560 644 41,000  Level Washington Center
Sat 10:18:27 AM 38.8514 -76.1728 41° Northeast 560 644 41,000  Level Washington Center
Sat 10:19:27 AM 38.9644 -76.0533 39° Northeast 565 650 41,000  Level Washington Center
Sat 10:20:27 AM 39.0817 -75.9231 41° Northeast 565 650 41,000  Level Washington Center
Sat 10:21:27 AM 39.1986 -75.7953 40° Northeast 560 644 41,000  Level Washington Center
Sat 10:22:27 AM 39.3175 -75.6639 41° Northeast 560 644 41,000  Level Washington Center
Sat 10:23:27 AM 39.4344 -75.5325 41° Northeast 560 644 41,000  Level Washington Center
Sat 10:24:27 AM 39.5508 -75.4031 41° Northeast 554 638 41,000  Level Washington Center
Sat 10:26:36 AM 39.7778 -75.1008 46° Northeast 554 638 41,000 -129 Level New York Center
Sat 10:27:33 AM 39.8808 -74.9583 47° Northeast 559 643 40,600 -1,729 Descending New York Center
Sat 10:28:34 AM 39.9861 -74.8047 48° Northeast 559 643 37,600 -3,049 Descending New York Center
Sat 10:29:35 AM 40.1044 -74.6353 48° Northeast 569 655 34,400 -2,300 Descending New York Center
Sat 10:30:34 AM 40.1886 -74.4769 55° Northeast 582 670 33,000 -706 Descending New York Center
Sat 10:31:34 AM 40.2775 -74.3022 56° Northeast 582 670 33,000  Level New York Center
Sat 10:32:34 AM 40.3681 -74.1297 55° Northeast 576 663 33,000 -50 Level New York Center
Sat 10:33:35 AM 40.4561 -73.9542 57° Northeast 576 663 32,900 -1,835 Descending New York Center
Sat 10:35:24 AM 40.6164 -73.6458 56° Northeast 547 629 27,800 -2,698 Descending Boston Center
Sat 10:36:24 AM 40.7033 -73.4750 56° Northeast 547 629 25,300 -2,500 Descending Boston Center
Sat 10:37:24 AM 40.7903 -73.3092 55° Northeast 547 629 22,800 -2,100 Descending Boston Center
Sat 10:38:24 AM 40.9039 -73.1706 43° Northeast 540 621 21,100 -1,350 Descending Boston Center
Sat 10:39:24 AM 41.0275 -73.0344 40° Northeast 525 604 20,100 -1,050 Descending Boston Center
Sat 10:40:24 AM 41.1508 -72.9364 31° Northeast 520 598 19,000 -550 Descending Boston Center
Sat 10:41:24 AM 41.2472 -72.8597 31° Northeast 513 590 19,000 -500 Level Boston Center
Sat 10:42:24 AM 41.3914 -72.7500 30° Northeast 491 565 18,000 -1,400 Descending Boston Center
Sat 10:43:24 AM 41.5083 -72.6592 30° Northeast 491 565 16,200 -1,500 Descending Boston Center
Sat 10:44:24 AM 41.6208 -72.5650 32° Northeast 486 559 15,000 -850 Descending Boston Center
Sat 10:45:24 AM 41.7253 -72.4594 37° Northeast 469 540 14,500 -769 Descending Boston Center
Sat 10:45:42 AM 41.7503 -72.4317 40° Northeast 466 536 14,000 -2,100 Descending Boston Center
Sat 10:46:24 AM 41.8211 -72.3481 41° Northeast 462 532 12,400 -1,875 Descending Boston Center
Sat 10:47:02 AM 41.8833 -72.2811 39° Northeast 458 527 11,500 -1,300 Descending Boston Center
Sat 10:47:24 AM 41.9167 -72.2419 41° Northeast 452 520 11,100 -500 Descending Boston Center
Sat 10:48:02 AM 41.9792 -72.1692 41° Northeast 433 498 11,000 -200 Descending Boston Center
Sat 10:48:24 AM 42.0081 -72.1383 38° Northeast 434 499 10,900 -590 Descending Boston Center
Sat 10:49:03 AM 42.0642 -72.0767 39° Northeast 385 443 10,400 -1,500 Descending Boston Center
Sat 10:50:04 AM 42.1411 -71.9922 39° Northeast 358 412 8,400 -1,967 Descending Boston Center
Sat 10:51:05 AM 42.2117 -71.9131 40° Northeast 332 382 6,400 -1,594 Descending Boston Center
Sat 10:52:12 AM 42.2822 -71.8367 39° Northeast 279 321 5,000 -446 Descending Boston Center
Sat 10:54:27 AM 42.4000 -71.6500 49° Northeast 284 327 4,900 -277 Descending KA90
Sat 10:55:27 AM 42.4333 -71.5667 62° Northeast 275 316 4,100 -1,000 Descending KA90
Sat 10:56:27 AM 42.4667 -71.4667 66° East 267 307 2,900 -600 Descending KA90
Sat 10:57:27 AM 42.5000 -71.4000 56° Northeast 228 262 2,900 -50 Level KA90
Sat 10:58:27 AM 42.5167 -71.3167 75° East 229 264 2,800 -500 Descending KA90
Sat 10:59:27 AM 42.5167 -71.2333 90° East 209 241 1,900 -550 Descending KA90
Sat 11:00:27 AM 42.5000 -71.2000 124° Southeast 170 196 1,700 -350 Descending KA90
Sat 11:01:27 AM 42.4667 -71.2167 200° South 126 145 1,200 -650 Descending KA90
Sat 11:02:27 AM 42.4667 -71.2500 270° West 121 139 400 -800 Descending KA90
Sat 11:04:00 AM 42.4667 -71.2833 270° West  Level FlightAware Approximate

Login

Don't have an account? Register now (free) for customized features, flight alerts, and more!